Kansas City, Missouri
Traffic Map
Current Weather Conditions
Kansas City, Missouri
Clear
Clear
43°
Feels Like: 35°
Wind Chill: 35° Ceiling: Unl
Heat Index: 43° Visibility: 10mi
Dew Point: 26° Wind: 16mph
Humidity: 51% Direction: 190° (S)
Pressure: 30.09in Gusts: 0mph
Raw Report DataKMKC 111554Z 19014KT 10SM CLR 06/M03 A3009 RMK AO2 SLP195 T00611033
Traffic Incident Summary
Active as of:
Severity:
Category:
InformationThere was an issue retrieving the traffic information for this location. Please try a different location or try again shortly.
Advertisements